Love Boat — OT3861 — position and weather

sailwx.info

Track history (hours):
 
Tides and Currents Weather Stations Pressure Air Temp Water Temp Dewpoint Dewpoint Depression Visibility Wind Speed Wind Dir Waves Ship Positions

Love Boat

Last reported at 2016-May-23 00:33 UTC. Time now 2016-May-29 15:28 UTC.
Position N 50°41' E 007°11'.

Length 110 m.

Type: Ship. MMSI: 205386190.

Date/timePositionNaut miles runAvg speedWind from/ knotsBaromVisibWave heightAir tempDewpointWater temp
2016-May-23 00:33N 50°41' E 007°11'4 4.3
2016-May-22 23:33N 50°45' E 007°07'4 4.3
2016-May-22 22:33N 50°48' E 007°02'4 3.5
2016-May-22 21:33N 50°51' E 006°59'3 2.9
2016-May-22 20:27N 50°54' E 007°02'4 3.9
2016-May-22 19:31N 50°57' E 006°58'12 3.6
2016-May-22 16:15N 51°07' E 006°51'2 2.7
2016-May-22 15:28N 51°09' E 006°50'2 2.5
2016-May-22 14:33N 51°11' E 006°47'3 3.4
2016-May-22 13:33N 51°14' E 006°44'2 1.9
2016-May-22 12:20N 51°16' E 006°43'14 3.3
2016-May-22 08:14N 51°29' E 006°41'2 3.0
2016-May-22 07:26N 51°32' E 006°41'4 3.2
2016-May-22 06:11N 51°34' E 006°36'3 5.2
2016-May-22 05:33N 51°38' E 006°35'3 3.3
2016-May-22 04:32N 51°40' E 006°31'10 4.3
2016-May-22 02:16N 51°46' E 006°20'4 5.2
2016-May-22 01:32N 51°49' E 006°16'45 5.0
2016-May-21 16:33N 52°03' E 005°06'10 7.1
2016-May-21 15:04N 52°13' E 005°00'4 7.4
2016-May-21 14:33N 52°16' E 005°01'7 6.7
2016-May-21 13:33N 52°23' E 004°57'4 3.5
2016-May-21 12:33N 52°24' E 004°52'0 0.0
2016-May-21 11:33N 52°24' E 004°52'0 0.0
2016-May-21 10:33N 52°24' E 004°52'0 0.0
2016-May-21 09:33N 52°24' E 004°52'0 0.0
2016-May-21 08:33N 52°24' E 004°52'0 0.0
2016-May-21 07:33N 52°24' E 004°52'0 0.0
2016-May-21 06:33N 52°24' E 004°52'0 0.0
2016-May-21 05:33N 52°24' E 004°52'0 0.0
2016-May-21 04:33N 52°24' E 004°52'0 0.0
2016-May-21 03:33N 52°24' E 004°52'0 0.0
2016-May-21 02:33N 52°24' E 004°52'0 0.0
2016-May-21 01:33N 52°24' E 004°52'0 0.0
2016-May-21 00:33N 52°24' E 004°52'0 0.0
2016-May-20 23:33N 52°24' E 004°52'0 0.0
2016-May-20 22:33N 52°24' E 004°52'0 0.0
2016-May-20 21:33N 52°24' E 004°52'0 0.0
2016-May-20 20:33N 52°24' E 004°52'0 0.0
2016-May-20 19:33N 52°24' E 004°52'0 0.0
2016-May-20 18:33N 52°24' E 004°52'0 0.0
2016-May-20 17:34N 52°24' E 004°52'0 0.2
2016-May-20 16:33N 52°24' E 004°52'0 0.0
2016-May-20 15:33N 52°24' E 004°52'0 0.0
2016-May-20 14:33N 52°24' E 004°52'0 0.0
2016-May-20 13:33N 52°24' E 004°52'0 0.0
2016-May-20 12:33N 52°24' E 004°52'0 0.0
2016-May-20 11:33N 52°24' E 004°52'0 0.0
2016-May-20 10:33N 52°24' E 004°52'0 0.0
2016-May-20 09:33N 52°24' E 004°52'0 0.3
2016-May-20 08:33N 52°25' E 004°52'0 0.1
2016-May-20 07:34N 52°25' E 004°52'0 0.0
2016-May-20 06:34N 52°25' E 004°52'0 0.0
2016-May-20 05:34N 52°25' E 004°52'0 0.0
2016-May-20 04:34N 52°25' E 004°52'0 0.0
2016-May-20 03:34N 52°25' E 004°52'0 0.0
2016-May-20 02:34N 52°25' E 004°52'0 0.0
2016-May-20 01:34N 52°25' E 004°52'4 4.0
2016-May-20 00:34N 52°22' E 004°57'8 7.5
2016-May-19 23:33N 52°15' E 005°01'8 7.4
2016-May-19 22:32N 52°08' E 005°03'7 7.0
2016-May-19 21:31N 52°01' E 005°07'1 0.5
2016-May-19 19:33N 52°00' E 005°06'6 6.5
2016-May-19 18:34N 51°58' E 004°56'7 7.3
2016-May-19 17:33N 51°55' E 004°45'5 4.9
2016-May-19 16:33N 51°51' E 004°40'7 6.8
2016-May-19 15:32N 51°44' E 004°38'7 6.9
2016-May-19 14:34N 51°43' E 004°48'3 3.2
2016-May-19 13:33N 51°40' E 004°51'0 0.0
2016-May-19 12:33N 51°40' E 004°51'0 0.0
2016-May-19 11:33N 51°40' E 004°51'0 0.0
2016-May-19 10:33N 51°40' E 004°51'0 0.0
2016-May-19 09:33N 51°40' E 004°51'0 0.0
2016-May-19 08:33N 51°40' E 004°51'0 0.0
2016-May-19 07:33N 51°40' E 004°51'0 0.0
2016-May-19 06:33N 51°40' E 004°51'0 0.0
2016-May-19 05:33N 51°40' E 004°51'0 0.0
2016-May-19 04:33N 51°40' E 004°51'0 0.0
2016-May-19 03:32N 51°40' E 004°51'0 0.0
2016-May-19 01:30N 51°40' E 004°51'0 0.0
2016-May-19 00:33N 51°40' E 004°51'0 0.0
2016-May-18 23:32N 51°40' E 004°51'0 0.0
2016-May-18 22:33N 51°40' E 004°51'0 0.0
2016-May-18 21:33N 51°40' E 004°51'0 0.0
2016-May-18 20:33N 51°40' E 004°51'0 0.0
2016-May-18 19:32N 51°40' E 004°51'0 0.0
2016-May-18 18:33N 51°40' E 004°51'0 0.0
2016-May-18 17:33N 51°40' E 004°51'1 0.9
2016-May-18 16:04N 51°39' E 004°50'0 0.0
2016-May-18 15:20N 51°39' E 004°50'3 0.4
2016-May-18 06:33N 51°42' E 004°50'1 0.8
2016-May-18 05:33N 51°43' E 004°50'0 0.0
2016-May-18 04:33N 51°43' E 004°50'0 0.0
2016-May-18 03:33N 51°43' E 004°50'0 0.0
2016-May-18 02:33N 51°43' E 004°50'0 0.0
2016-May-18 01:33N 51°43' E 004°50'  
Track history (hours):
 
Tides and Currents Weather Stations Pressure Air Temp Water Temp Dewpoint Dewpoint Depression Visibility Wind Speed Wind Dir Waves Ship Positions

Love Boat

Last reported at 2016-May-23 00:33 UTC. Time now 2016-May-29 15:28 UTC.
Position N 50°41' E 007°11'.

Length 110 m.

Type: Ship. MMSI: 205386190.

Date/timePositionNaut miles runAvg speedWind from/ knotsBaromVisibWave heightAir tempDewpointWater temp
2016-May-23 00:33N 50°41' E 007°11'4 4.3
2016-May-22 23:33N 50°45' E 007°07'4 4.3
2016-May-22 22:33N 50°48' E 007°02'4 3.5
2016-May-22 21:33N 50°51' E 006°59'3 2.9
2016-May-22 20:27N 50°54' E 007°02'4 3.9
2016-May-22 19:31N 50°57' E 006°58'12 3.6
2016-May-22 16:15N 51°07' E 006°51'2 2.7
2016-May-22 15:28N 51°09' E 006°50'2 2.5
2016-May-22 14:33N 51°11' E 006°47'3 3.4
2016-May-22 13:33N 51°14' E 006°44'2 1.9
2016-May-22 12:20N 51°16' E 006°43'14 3.3
2016-May-22 08:14N 51°29' E 006°41'2 3.0
2016-May-22 07:26N 51°32' E 006°41'4 3.2
2016-May-22 06:11N 51°34' E 006°36'3 5.2
2016-May-22 05:33N 51°38' E 006°35'3 3.3
2016-May-22 04:32N 51°40' E 006°31'10 4.3
2016-May-22 02:16N 51°46' E 006°20'4 5.2
2016-May-22 01:32N 51°49' E 006°16'45 5.0
2016-May-21 16:33N 52°03' E 005°06'10 7.1
2016-May-21 15:04N 52°13' E 005°00'4 7.4
2016-May-21 14:33N 52°16' E 005°01'7 6.7
2016-May-21 13:33N 52°23' E 004°57'4 3.5
2016-May-21 12:33N 52°24' E 004°52'0 0.0
2016-May-21 11:33N 52°24' E 004°52'0 0.0
2016-May-21 10:33N 52°24' E 004°52'0 0.0
2016-May-21 09:33N 52°24' E 004°52'0 0.0
2016-May-21 08:33N 52°24' E 004°52'0 0.0
2016-May-21 07:33N 52°24' E 004°52'0 0.0
2016-May-21 06:33N 52°24' E 004°52'0 0.0
2016-May-21 05:33N 52°24' E 004°52'0 0.0
2016-May-21 04:33N 52°24' E 004°52'0 0.0
2016-May-21 03:33N 52°24' E 004°52'0 0.0
2016-May-21 02:33N 52°24' E 004°52'0 0.0
2016-May-21 01:33N 52°24' E 004°52'0 0.0
2016-May-21 00:33N 52°24' E 004°52'0 0.0
2016-May-20 23:33N 52°24' E 004°52'0 0.0
2016-May-20 22:33N 52°24' E 004°52'0 0.0
2016-May-20 21:33N 52°24' E 004°52'0 0.0
2016-May-20 20:33N 52°24' E 004°52'0 0.0
2016-May-20 19:33N 52°24' E 004°52'0 0.0
2016-May-20 18:33N 52°24' E 004°52'0 0.0
2016-May-20 17:34N 52°24' E 004°52'0 0.2
2016-May-20 16:33N 52°24' E 004°52'0 0.0
2016-May-20 15:33N 52°24' E 004°52'0 0.0
2016-May-20 14:33N 52°24' E 004°52'0 0.0
2016-May-20 13:33N 52°24' E 004°52'0 0.0
2016-May-20 12:33N 52°24' E 004°52'0 0.0
2016-May-20 11:33N 52°24' E 004°52'0 0.0
2016-May-20 10:33N 52°24' E 004°52'0 0.0
2016-May-20 09:33N 52°24' E 004°52'0 0.3
2016-May-20 08:33N 52°25' E 004°52'0 0.1
2016-May-20 07:34N 52°25' E 004°52'0 0.0
2016-May-20 06:34N 52°25' E 004°52'0 0.0
2016-May-20 05:34N 52°25' E 004°52'0 0.0
2016-May-20 04:34N 52°25' E 004°52'0 0.0
2016-May-20 03:34N 52°25' E 004°52'0 0.0
2016-May-20 02:34N 52°25' E 004°52'0 0.0
2016-May-20 01:34N 52°25' E 004°52'4 4.0
2016-May-20 00:34N 52°22' E 004°57'8 7.5
2016-May-19 23:33N 52°15' E 005°01'8 7.4
2016-May-19 22:32N 52°08' E 005°03'7 7.0
2016-May-19 21:31N 52°01' E 005°07'1 0.5
2016-May-19 19:33N 52°00' E 005°06'6 6.5
2016-May-19 18:34N 51°58' E 004°56'7 7.3
2016-May-19 17:33N 51°55' E 004°45'5 4.9
2016-May-19 16:33N 51°51' E 004°40'7 6.8
2016-May-19 15:32N 51°44' E 004°38'7 6.9
2016-May-19 14:34N 51°43' E 004°48'3 3.2
2016-May-19 13:33N 51°40' E 004°51'0 0.0
2016-May-19 12:33N 51°40' E 004°51'0 0.0
2016-May-19 11:33N 51°40' E 004°51'0 0.0
2016-May-19 10:33N 51°40' E 004°51'0 0.0
2016-May-19 09:33N 51°40' E 004°51'0 0.0
2016-May-19 08:33N 51°40' E 004°51'0 0.0
2016-May-19 07:33N 51°40' E 004°51'0 0.0
2016-May-19 06:33N 51°40' E 004°51'0 0.0
2016-May-19 05:33N 51°40' E 004°51'0 0.0
2016-May-19 04:33N 51°40' E 004°51'0 0.0
2016-May-19 03:32N 51°40' E 004°51'0 0.0
2016-May-19 01:30N 51°40' E 004°51'0 0.0
2016-May-19 00:33N 51°40' E 004°51'0 0.0
2016-May-18 23:32N 51°40' E 004°51'0 0.0
2016-May-18 22:33N 51°40' E 004°51'0 0.0
2016-May-18 21:33N 51°40' E 004°51'0 0.0
2016-May-18 20:33N 51°40' E 004°51'0 0.0
2016-May-18 19:32N 51°40' E 004°51'0 0.0
2016-May-18 18:33N 51°40' E 004°51'0 0.0
2016-May-18 17:33N 51°40' E 004°51'1 0.9
2016-May-18 16:04N 51°39' E 004°50'0 0.0
2016-May-18 15:20N 51°39' E 004°50'3 0.4
2016-May-18 06:33N 51°42' E 004°50'1 0.8
2016-May-18 05:33N 51°43' E 004°50'0 0.0
2016-May-18 04:33N 51°43' E 004°50'0 0.0
2016-May-18 03:33N 51°43' E 004°50'0 0.0
2016-May-18 02:33N 51°43' E 004°50'0 0.0
2016-May-18 01:33N 51°43' E 004°50'  

Dump ship's entire track history